createdAt,value
2024-03-12T00:00:42.777Z,8.93
2024-03-12T00:03:10.132Z,9.09
2024-03-12T00:05:37.981Z,8.90
2024-03-12T00:08:05.715Z,8.97
2024-03-12T00:10:32.970Z,8.65
2024-03-12T00:13:00.442Z,8.87
2024-03-12T00:15:28.053Z,8.91
2024-03-12T00:17:55.948Z,8.88
2024-03-12T00:20:24.150Z,8.80
2024-03-12T00:22:51.832Z,8.66
2024-03-12T00:25:19.291Z,8.75
2024-03-12T00:27:47.061Z,8.61
2024-03-12T00:30:15.503Z,8.59
2024-03-12T00:32:42.864Z,8.82
2024-03-12T00:35:11.014Z,8.71
2024-03-12T00:37:38.480Z,8.70
2024-03-12T00:40:07.163Z,8.73
2024-03-12T00:42:34.741Z,8.65
2024-03-12T00:45:01.971Z,8.71
2024-03-12T00:47:29.222Z,8.64
2024-03-12T00:49:58.515Z,8.58
2024-03-12T00:52:27.122Z,8.45
2024-03-12T00:54:54.523Z,8.56
2024-03-12T00:57:21.817Z,8.43
2024-03-12T00:59:49.133Z,8.43
2024-03-12T01:02:16.442Z,8.35
2024-03-12T01:04:43.777Z,8.41
2024-03-12T01:07:11.113Z,8.31
2024-03-12T01:09:38.366Z,8.36
2024-03-12T01:12:09.246Z,8.36
2024-03-12T01:14:37.929Z,8.53
2024-03-12T01:17:05.638Z,8.38
2024-03-12T01:19:34.306Z,8.31
2024-03-12T01:22:01.721Z,8.33
2024-03-12T01:24:29.340Z,8.40
2024-03-12T01:26:56.870Z,8.54
2024-03-12T01:29:24.156Z,8.32
2024-03-12T01:31:51.427Z,8.30
2024-03-12T01:34:20.050Z,8.33
2024-03-12T01:36:47.477Z,8.34
2024-03-12T01:39:14.992Z,8.32
2024-03-12T01:41:42.194Z,8.25
2024-03-12T01:44:09.667Z,8.25
2024-03-12T01:46:38.044Z,8.32
2024-03-12T01:49:06.220Z,8.24
2024-03-12T01:51:34.299Z,8.34
2024-03-12T01:54:01.747Z,8.27
2024-03-12T01:56:28.998Z,8.26
2024-03-12T01:58:57.288Z,8.33
2024-03-12T02:01:25.429Z,8.19
2024-03-12T02:03:53.046Z,8.07
2024-03-12T02:06:20.859Z,8.23
2024-03-12T02:08:52.942Z,8.14
2024-03-12T02:11:20.344Z,8.07
2024-03-12T02:13:47.685Z,7.98
2024-03-12T02:16:15.131Z,8.05
2024-03-12T02:18:42.458Z,8.02
2024-03-12T02:21:09.752Z,7.97
2024-03-12T02:23:41.201Z,7.92
2024-03-12T02:26:08.460Z,8.04
2024-03-12T02:28:35.712Z,8.07
2024-03-12T02:31:03.168Z,7.99
2024-03-12T02:33:30.621Z,7.99
2024-03-12T02:35:58.073Z,8.08
2024-03-12T02:38:25.650Z,7.88
2024-03-12T02:40:53.148Z,7.79
2024-03-12T02:43:20.397Z,7.65
2024-03-12T02:45:47.777Z,7.84
2024-03-12T02:48:15.128Z,7.95
2024-03-12T02:50:42.745Z,7.88
2024-03-12T02:53:10.117Z,7.96
2024-03-12T02:55:37.584Z,7.83
2024-03-12T02:58:05.237Z,7.86
2024-03-12T03:00:33.189Z,7.77
2024-03-12T03:03:00.800Z,7.69
2024-03-12T03:05:28.173Z,7.90
2024-03-12T03:07:55.600Z,8.02
2024-03-12T03:10:23.067Z,7.99
2024-03-12T03:12:50.469Z,7.87
2024-03-12T03:15:17.828Z,7.92
2024-03-12T03:17:45.420Z,8.07
2024-03-12T03:20:13.916Z,7.96
2024-03-12T03:22:41.692Z,8.08
2024-03-12T03:25:10.583Z,7.98
2024-03-12T03:27:37.957Z,8.07
2024-03-12T03:30:07.264Z,8.08
2024-03-12T03:32:34.761Z,8.04
2024-03-12T03:35:03.423Z,8.05
2024-03-12T03:37:31.497Z,8.01
2024-03-12T03:39:58.802Z,8.03
2024-03-12T03:42:26.470Z,7.91
2024-03-12T03:44:53.788Z,7.87
2024-03-12T03:47:21.125Z,8.14
2024-03-12T03:49:48.474Z,7.98
2024-03-12T03:52:15.800Z,7.99
2024-03-12T03:54:43.172Z,7.85
2024-03-12T03:57:10.493Z,7.94
2024-03-12T03:59:37.781Z,7.72
2024-03-12T04:02:05.200Z,7.75
2024-03-12T04:04:32.792Z,7.91
2024-03-12T04:07:00.142Z,8.08
2024-03-12T04:09:27.466Z,7.87
2024-03-12T04:11:54.825Z,7.89
2024-03-12T04:14:22.074Z,7.91
2024-03-12T04:16:49.370Z,8.05
2024-03-12T04:19:16.918Z,8.15
2024-03-12T04:21:44.551Z,8.00
2024-03-12T04:24:12.596Z,8.08
2024-03-12T04:26:39.840Z,7.84
2024-03-12T04:29:07.100Z,8.11
2024-03-12T04:31:35.418Z,8.23
2024-03-12T04:34:02.908Z,7.94
2024-03-12T04:36:30.357Z,8.02
2024-03-12T04:38:57.617Z,7.95
2024-03-12T04:41:24.934Z,7.87
2024-03-12T04:43:52.179Z,7.90
2024-03-12T04:46:19.817Z,7.99
2024-03-12T04:48:47.273Z,7.87
2024-03-12T04:51:14.776Z,7.88
2024-03-12T04:53:42.057Z,7.85
2024-03-12T04:56:09.361Z,7.97
2024-03-12T04:58:36.734Z,7.94
2024-03-12T05:01:04.395Z,8.00
2024-03-12T05:03:31.780Z,11.31
2024-03-12T05:05:59.176Z,11.65
2024-03-12T05:08:26.411Z,13.47
2024-03-12T05:10:53.717Z,12.17
2024-03-12T05:13:21.092Z,12.12
2024-03-12T05:15:48.467Z,12.55
2024-03-12T05:18:15.894Z,12.02
2024-03-12T05:20:43.236Z,13.08
2024-03-12T05:23:10.496Z,13.02
2024-03-12T05:25:37.800Z,12.45
2024-03-12T05:28:06.662Z,12.84
2024-03-12T05:30:34.261Z,12.51
2024-03-12T05:33:01.601Z,13.09
2024-03-12T05:35:29.477Z,12.73
2024-03-12T05:37:57.588Z,13.08
2024-03-12T05:40:24.962Z,12.48
2024-03-12T05:42:52.221Z,12.58
2024-03-12T05:45:19.565Z,12.22
2024-03-12T05:47:46.900Z,12.05
2024-03-12T05:50:14.270Z,11.50
2024-03-12T05:52:41.642Z,9.91
2024-03-12T05:55:09.098Z,9.37
2024-03-12T05:57:36.453Z,9.08
2024-03-12T06:00:04.599Z,9.08
2024-03-12T06:02:31.954Z,9.15
2024-03-12T06:04:59.229Z,9.06
2024-03-12T06:07:26.645Z,8.93
2024-03-12T06:09:54.954Z,8.91
2024-03-12T06:12:22.648Z,8.95
2024-03-12T06:14:50.666Z,8.96
2024-03-12T06:17:18.081Z,8.91
2024-03-12T06:19:45.391Z,9.03
2024-03-12T06:22:12.745Z,9.06
2024-03-12T06:24:40.063Z,8.96
2024-03-12T06:27:07.700Z,8.94
2024-03-12T06:29:35.490Z,8.90
2024-03-12T06:32:02.779Z,9.00
2024-03-12T06:34:30.159Z,8.98
2024-03-12T06:36:57.448Z,9.15
2024-03-12T06:39:26.473Z,9.26
2024-03-12T06:41:53.748Z,9.07
2024-03-12T06:44:21.001Z,9.12
2024-03-12T06:46:48.286Z,9.22
2024-03-12T06:49:15.641Z,9.24
2024-03-12T06:51:45.699Z,9.41
2024-03-12T06:54:13.055Z,9.58
2024-03-12T06:56:40.583Z,9.80
2024-03-12T06:59:07.774Z,9.73
2024-03-12T07:01:35.072Z,9.48
2024-03-12T07:04:02.482Z,9.46
2024-03-12T07:06:29.867Z,9.61
2024-03-12T07:08:57.190Z,9.69
2024-03-12T07:11:24.481Z,9.67
2024-03-12T07:13:51.756Z,9.67
2024-03-12T07:16:19.263Z,9.85
2024-03-12T07:18:46.898Z,9.66
2024-03-12T07:21:14.338Z,9.63
2024-03-12T07:23:41.741Z,9.52
2024-03-12T07:26:09.054Z,9.59
2024-03-12T07:28:36.490Z,9.46
2024-03-12T07:31:04.233Z,9.36
2024-03-12T07:33:31.716Z,9.24
2024-03-12T07:35:58.914Z,9.49
2024-03-12T07:38:26.164Z,9.44
2024-03-12T07:40:53.503Z,9.46
2024-03-12T07:43:20.927Z,9.36
2024-03-12T07:45:48.995Z,9.58
2024-03-12T07:48:16.521Z,9.38
2024-03-12T07:50:44.183Z,9.32
2024-03-12T07:53:11.467Z,9.48
2024-03-12T07:55:38.794Z,9.53
2024-03-12T07:58:06.222Z,9.76
2024-03-12T08:00:33.700Z,9.70
2024-03-12T08:03:01.076Z,9.70
2024-03-12T08:05:30.260Z,9.74
2024-03-12T08:07:58.739Z,9.97
2024-03-12T08:10:26.032Z,9.72
2024-03-12T08:12:53.453Z,9.75
2024-03-12T08:15:20.775Z,9.76
2024-03-12T08:17:48.385Z,9.92
2024-03-12T08:20:15.865Z,9.87
2024-03-12T08:22:43.095Z,9.85
2024-03-12T08:25:11.263Z,10.02
2024-03-12T08:27:38.847Z,9.94
2024-03-12T08:30:08.312Z,9.78
2024-03-12T08:32:39.896Z,9.90
2024-03-12T08:35:07.836Z,9.95
2024-03-12T08:37:38.511Z,10.06
2024-03-12T08:40:07.246Z,10.12
2024-03-12T08:42:36.044Z,9.96
2024-03-12T08:45:07.462Z,10.15
2024-03-12T08:47:34.818Z,10.17
2024-03-12T08:50:02.672Z,9.99
2024-03-12T08:52:29.998Z,9.99
2024-03-12T08:54:57.383Z,10.00
2024-03-12T08:57:24.824Z,10.27
2024-03-12T08:59:52.232Z,10.27
2024-03-12T09:02:19.571Z,10.16
2024-03-12T09:04:46.909Z,10.03
2024-03-12T09:07:14.447Z,10.14
2024-03-12T09:09:41.720Z,10.19
2024-03-12T09:12:09.027Z,10.29
2024-03-12T09:14:36.272Z,10.22
2024-03-12T09:17:04.066Z,10.44
2024-03-12T09:19:31.345Z,10.46
2024-03-12T09:21:58.861Z,10.55
2024-03-12T09:24:26.178Z,10.55
2024-03-12T09:26:53.550Z,10.68
2024-03-12T09:29:21.108Z,10.64
2024-03-12T09:31:48.328Z,10.68
2024-03-12T09:34:15.692Z,10.52
2024-03-12T09:36:43.112Z,10.57
2024-03-12T09:39:10.591Z,10.77
2024-03-12T09:41:43.527Z,10.84
2024-03-12T09:44:12.055Z,10.72
2024-03-12T09:46:41.604Z,10.79
2024-03-12T09:49:11.597Z,10.74
2024-03-12T09:51:39.245Z,10.94
2024-03-12T09:54:06.577Z,10.70
2024-03-12T09:56:34.199Z,10.79
2024-03-12T09:59:01.966Z,10.84
2024-03-12T10:01:29.323Z,10.71
2024-03-12T10:03:56.727Z,10.89
2024-03-12T10:06:24.001Z,11.02
2024-03-12T10:08:56.589Z,11.02
2024-03-12T10:11:24.836Z,11.18
2024-03-12T10:13:56.805Z,11.29
2024-03-12T10:16:25.106Z,11.33
2024-03-12T10:19:06.813Z,11.05
2024-03-12T10:21:34.138Z,10.97
2024-03-12T10:24:10.956Z,10.82
2024-03-12T10:26:38.299Z,11.02
2024-03-12T10:29:10.422Z,10.94
2024-03-12T10:31:38.048Z,10.88
2024-03-12T10:34:08.635Z,10.88
2024-03-12T10:36:37.185Z,11.13
2024-03-12T10:39:04.654Z,11.31
2024-03-12T10:41:31.993Z,10.91
2024-03-12T10:44:08.693Z,10.93
2024-03-12T10:46:36.930Z,10.99
2024-03-12T10:49:06.173Z,11.02
2024-03-12T10:51:33.584Z,11.06
2024-03-12T10:54:01.124Z,11.08
2024-03-12T10:56:28.516Z,10.93
2024-03-12T10:58:56.237Z,11.08
2024-03-12T11:01:25.267Z,11.13
2024-03-12T11:03:57.051Z,13.35
2024-03-12T11:06:27.066Z,13.34
2024-03-12T11:08:56.642Z,13.57
2024-03-12T11:11:23.976Z,12.34
2024-03-12T11:13:51.589Z,11.62
2024-03-12T11:16:21.000Z,11.36
2024-03-12T11:18:48.368Z,11.38
2024-03-12T11:21:33.791Z,11.28
2024-03-12T11:24:01.194Z,11.25
2024-03-12T11:28:59.631Z,11.27
2024-03-12T11:31:35.427Z,11.42
2024-03-12T11:34:02.849Z,11.40
2024-03-12T11:36:43.276Z,11.60
2024-03-12T11:39:23.976Z,11.99
2024-03-12T11:42:12.721Z,11.93
2024-03-12T11:44:53.001Z,11.60
2024-03-12T11:47:26.252Z,11.69
2024-03-12T11:49:53.560Z,11.67
2024-03-12T11:52:24.399Z,11.88
2024-03-12T11:54:51.740Z,11.95
2024-03-12T11:57:25.488Z,12.29
2024-03-12T11:59:53.052Z,12.22
2024-03-12T12:02:20.698Z,12.37
2024-03-12T12:04:49.382Z,12.36
2024-03-12T12:07:16.730Z,12.12
2024-03-12T12:09:49.733Z,12.40
2024-03-12T12:12:17.275Z,11.82
2024-03-12T12:14:45.894Z,11.93
2024-03-12T12:17:13.248Z,11.83
2024-03-12T12:19:43.163Z,11.75
2024-03-12T12:22:10.842Z,11.68
2024-03-12T12:24:39.089Z,11.72
2024-03-12T12:27:06.643Z,11.74
2024-03-12T12:29:35.045Z,11.69
2024-03-12T12:32:02.783Z,11.75
2024-03-12T12:34:31.163Z,11.65
2024-03-12T12:36:59.955Z,11.77
2024-03-12T12:39:36.144Z,11.73
2024-03-12T12:42:10.971Z,11.62
2024-03-12T12:44:38.333Z,11.53
2024-03-12T12:47:05.972Z,11.71
2024-03-12T12:49:33.264Z,11.83
2024-03-12T12:52:00.681Z,11.96
2024-03-12T12:54:28.288Z,11.82
2024-03-12T12:57:00.664Z,11.80
2024-03-12T12:59:33.904Z,11.70
2024-03-12T13:02:16.331Z,11.65
2024-03-12T13:04:43.804Z,11.65
2024-03-12T13:07:11.078Z,11.63
2024-03-12T13:09:38.428Z,11.64
2024-03-12T13:12:06.027Z,11.58
2024-03-12T13:14:33.415Z,11.73
2024-03-12T13:17:01.079Z,11.69
2024-03-12T13:19:28.797Z,11.80
2024-03-12T13:21:56.394Z,11.83
2024-03-12T13:24:23.990Z,11.78
2024-03-12T13:26:51.410Z,11.79
2024-03-12T13:29:18.755Z,11.75
2024-03-12T13:31:46.756Z,11.78
2024-03-12T13:34:14.304Z,11.77
2024-03-12T13:36:42.113Z,11.77
2024-03-12T13:39:09.488Z,11.86
2024-03-12T13:41:36.792Z,11.90
2024-03-12T13:44:04.119Z,11.94
2024-03-12T13:46:31.435Z,11.89
2024-03-12T13:49:14.759Z,11.99
2024-03-12T13:51:42.938Z,11.96
2024-03-12T13:54:10.545Z,11.70
2024-03-12T13:56:38.265Z,11.77
2024-03-12T13:59:06.074Z,12.00
2024-03-12T14:01:34.408Z,11.74
2024-03-12T14:04:02.086Z,11.79
2024-03-12T14:06:29.755Z,11.98
2024-03-12T14:08:57.041Z,12.04
2024-03-12T14:11:24.823Z,12.25
2024-03-12T14:13:52.304Z,11.97
2024-03-12T14:16:22.103Z,11.92
2024-03-12T14:18:50.325Z,12.12
2024-03-12T14:21:17.935Z,12.13
2024-03-12T14:23:45.581Z,12.12
2024-03-12T14:26:12.998Z,12.08
2024-03-12T14:28:40.239Z,12.29
2024-03-12T14:31:08.142Z,12.08
2024-03-12T14:33:35.734Z,13.93
2024-03-12T14:36:03.281Z,15.19
2024-03-12T14:38:30.539Z,13.28
2024-03-12T14:40:57.848Z,12.69
2024-03-12T14:43:25.152Z,12.40
2024-03-12T14:45:52.494Z,12.13
2024-03-12T14:48:19.764Z,12.07
2024-03-12T14:50:47.114Z,12.23
2024-03-12T14:53:14.524Z,12.14
2024-03-12T14:55:41.923Z,11.99
2024-03-12T14:58:09.311Z,12.15
2024-03-12T15:00:36.805Z,12.11
2024-03-12T15:03:04.322Z,12.05
2024-03-12T15:05:31.945Z,12.02
2024-03-12T15:07:59.368Z,12.07
2024-03-12T15:10:26.892Z,12.09
2024-03-12T15:12:54.320Z,12.15
2024-03-12T15:15:21.610Z,11.95
2024-03-12T15:17:48.878Z,11.91
2024-03-12T15:20:16.689Z,11.96
2024-03-12T15:22:45.378Z,11.93
2024-03-12T15:25:13.139Z,11.84
2024-03-12T15:27:41.127Z,11.86
2024-03-12T15:30:08.859Z,11.85
2024-03-12T15:32:37.076Z,11.62
2024-03-12T15:35:08.220Z,11.71
2024-03-12T15:37:35.668Z,11.72
2024-03-12T15:40:03.017Z,11.70
2024-03-12T15:42:30.469Z,11.63
2024-03-12T15:44:57.689Z,11.63
2024-03-12T15:47:25.062Z,11.70
2024-03-12T15:49:52.362Z,11.65
2024-03-12T15:52:19.610Z,11.63
2024-03-12T15:54:48.093Z,11.49
2024-03-12T15:57:16.145Z,11.97
2024-03-12T15:59:44.515Z,14.33
2024-03-12T16:02:11.940Z,13.33
2024-03-12T16:04:39.306Z,12.18
2024-03-12T16:07:06.781Z,12.03
2024-03-12T16:09:34.625Z,12.52
2024-03-12T16:12:02.057Z,14.25
2024-03-12T16:14:29.334Z,14.10
2024-03-12T16:16:56.594Z,14.67
2024-03-12T16:19:24.146Z,14.16
2024-03-12T16:21:51.569Z,13.51
2024-03-12T16:24:18.958Z,13.61
2024-03-12T16:26:46.384Z,14.87
2024-03-12T16:29:13.698Z,14.38
2024-03-12T16:31:43.918Z,14.04
2024-03-12T16:34:11.378Z,13.80
2024-03-12T16:36:38.946Z,13.10
2024-03-12T16:39:06.243Z,13.24
2024-03-12T16:41:33.640Z,13.88
2024-03-12T16:44:00.956Z,14.19
2024-03-12T16:46:28.302Z,13.90
2024-03-12T16:48:55.631Z,14.37
2024-03-12T16:51:23.123Z,14.48
2024-03-12T16:53:50.793Z,13.93
2024-03-12T16:56:25.588Z,13.85
2024-03-12T16:58:54.062Z,13.35
2024-03-12T17:01:22.030Z,14.57
2024-03-12T17:03:49.749Z,13.98
2024-03-12T17:06:19.113Z,13.97
2024-03-12T17:08:46.937Z,13.79
2024-03-12T17:11:14.413Z,13.06
2024-03-12T17:13:41.998Z,13.21
2024-03-12T17:16:13.566Z,12.21
2024-03-12T17:18:41.534Z,11.70
2024-03-12T17:21:09.239Z,11.33
2024-03-12T17:23:36.807Z,11.32
2024-03-12T17:26:04.720Z,11.18
2024-03-12T17:28:32.297Z,11.32
2024-03-12T17:30:59.754Z,11.26
2024-03-12T17:33:27.312Z,10.99
2024-03-12T17:35:55.001Z,10.90
2024-03-12T17:38:23.842Z,10.78
2024-03-12T17:40:51.535Z,10.92
2024-03-12T17:43:19.210Z,10.78
2024-03-12T17:45:46.776Z,10.75
2024-03-12T17:48:25.555Z,10.63
2024-03-12T17:50:53.106Z,10.69
2024-03-12T17:53:20.696Z,10.62
2024-03-12T17:55:48.268Z,10.67
2024-03-12T17:58:17.269Z,10.52
2024-03-12T18:00:45.234Z,10.58
2024-03-12T18:03:13.024Z,10.48
2024-03-12T18:05:40.440Z,10.46
2024-03-12T18:08:18.652Z,10.40
2024-03-12T18:10:48.605Z,10.34
2024-03-12T18:13:16.237Z,10.34
2024-03-12T18:15:43.530Z,10.26
2024-03-12T18:18:10.756Z,10.20
2024-03-12T18:20:38.220Z,10.20
2024-03-12T18:23:05.538Z,10.23
2024-03-12T18:25:32.944Z,10.17
2024-03-12T18:28:00.403Z,10.31
2024-03-12T18:30:27.846Z,10.40
2024-03-12T18:32:55.677Z,10.54
2024-03-12T18:35:23.422Z,10.49
2024-03-12T18:37:50.715Z,10.39
2024-03-12T18:40:17.982Z,10.51
2024-03-12T18:42:45.857Z,10.43
2024-03-12T18:45:13.538Z,10.47
2024-03-12T18:47:41.525Z,10.37
2024-03-12T18:50:09.648Z,10.38
2024-03-12T18:52:40.642Z,10.22
2024-03-12T18:55:09.457Z,10.26
2024-03-12T18:57:38.414Z,10.30
2024-03-12T19:00:08.648Z,10.42
2024-03-12T19:02:39.751Z,10.31
2024-03-12T19:05:08.886Z,10.34
2024-03-12T19:07:36.374Z,10.27
2024-03-12T19:10:04.890Z,10.21
2024-03-12T19:12:42.154Z,10.22
2024-03-12T19:15:14.348Z,10.22
2024-03-12T19:17:43.494Z,10.19
2024-03-12T19:20:15.533Z,10.22
2024-03-12T19:22:47.367Z,10.24
2024-03-12T19:25:16.380Z,10.18
2024-03-12T19:27:46.454Z,10.17
2024-03-12T19:30:15.472Z,10.27
2024-03-12T19:32:42.993Z,10.34
2024-03-12T19:35:10.772Z,10.27
2024-03-12T19:37:39.551Z,10.18
2024-03-12T19:40:09.046Z,10.29
2024-03-12T19:42:36.680Z,10.21
2024-03-12T19:45:04.486Z,10.04
2024-03-12T19:47:32.149Z,10.00
2024-03-12T19:49:59.615Z,10.08
2024-03-12T19:52:27.035Z,10.03
2024-03-12T19:54:54.309Z,10.07
2024-03-12T19:57:21.764Z,10.14
2024-03-12T19:59:49.096Z,10.08
2024-03-12T20:02:16.816Z,10.23
2024-03-12T20:04:44.055Z,10.17
2024-03-12T20:07:11.461Z,10.11
2024-03-12T20:09:38.743Z,9.90
2024-03-12T20:12:06.523Z,9.80
2024-03-12T20:14:33.704Z,9.88
2024-03-12T20:17:01.348Z,9.78
2024-03-12T20:19:28.803Z,9.82
2024-03-12T20:21:56.643Z,9.71
2024-03-12T20:24:23.946Z,9.77
2024-03-12T20:26:51.209Z,9.64
2024-03-12T20:29:18.507Z,9.65
2024-03-12T20:31:45.844Z,9.68
2024-03-12T20:34:13.069Z,9.78
2024-03-12T20:36:40.382Z,9.58
2024-03-12T20:39:07.625Z,9.52
2024-03-12T20:41:34.995Z,9.51
2024-03-12T20:44:02.578Z,9.52
2024-03-12T20:46:29.954Z,9.61
2024-03-12T20:48:57.347Z,9.68
2024-03-12T20:51:26.020Z,9.61
2024-03-12T20:53:53.343Z,9.62
2024-03-12T20:56:20.568Z,9.56
2024-03-12T20:58:47.785Z,9.42
2024-03-12T21:01:15.101Z,9.44
2024-03-12T21:03:42.412Z,9.43
2024-03-12T21:06:09.743Z,9.34
2024-03-12T21:08:36.902Z,9.53
2024-03-12T21:11:04.373Z,9.68
2024-03-12T21:13:31.571Z,9.79
2024-03-12T21:15:59.180Z,9.72
2024-03-12T21:18:26.403Z,9.68
2024-03-12T21:20:53.633Z,9.60
2024-03-12T21:23:20.842Z,9.76
2024-03-12T21:25:48.051Z,9.89
2024-03-12T21:28:15.480Z,9.71
2024-03-12T21:30:42.779Z,9.67
2024-03-12T21:33:09.974Z,9.74
2024-03-12T21:35:37.373Z,9.72
2024-03-12T21:38:04.731Z,9.87
2024-03-12T21:40:32.967Z,9.70
2024-03-12T21:43:00.286Z,10.00
2024-03-12T21:45:27.522Z,9.74
2024-03-12T21:47:54.879Z,10.01
2024-03-12T21:50:22.093Z,9.97
2024-03-12T21:52:49.667Z,9.83
2024-03-12T21:55:17.073Z,9.71
2024-03-12T21:57:45.108Z,9.68
2024-03-12T22:00:13.394Z,9.84
2024-03-12T22:02:40.805Z,9.68
2024-03-12T22:05:08.073Z,9.51
2024-03-12T22:07:35.689Z,9.55
2024-03-12T22:10:03.315Z,9.56
2024-03-12T22:12:31.018Z,9.56
2024-03-12T22:14:58.435Z,9.56
2024-03-12T22:17:25.724Z,9.51
2024-03-12T22:19:52.861Z,9.61
2024-03-12T22:22:20.271Z,9.59
2024-03-12T22:24:47.512Z,9.51
2024-03-12T22:27:14.992Z,9.46
2024-03-12T22:29:42.219Z,9.52
2024-03-12T22:32:09.489Z,9.55
2024-03-12T22:34:37.530Z,9.64
2024-03-12T22:37:04.785Z,9.54
2024-03-12T22:39:32.249Z,9.53
2024-03-12T22:41:59.816Z,9.58
2024-03-12T22:44:27.318Z,9.53
2024-03-12T22:46:54.860Z,9.48
2024-03-12T22:49:22.356Z,9.57
2024-03-12T22:51:56.488Z,9.51
2024-03-12T22:54:24.383Z,9.60
2024-03-12T22:56:51.871Z,9.55
2024-03-12T22:59:19.369Z,9.58
2024-03-12T23:01:53.379Z,9.49
2024-03-12T23:04:20.951Z,9.47
2024-03-12T23:06:48.463Z,9.40
2024-03-12T23:09:15.912Z,9.47
2024-03-12T23:11:43.331Z,9.49
2024-03-12T23:14:10.707Z,9.61
2024-03-12T23:16:37.877Z,9.55
2024-03-12T23:19:06.022Z,9.49
2024-03-12T23:21:33.283Z,9.50
2024-03-12T23:24:00.573Z,9.46
2024-03-12T23:26:28.097Z,9.56
2024-03-12T23:28:55.475Z,9.52
2024-03-12T23:31:22.841Z,9.48
2024-03-12T23:33:50.161Z,9.54
2024-03-12T23:36:17.441Z,9.62
2024-03-12T23:38:44.854Z,9.63
2024-03-12T23:41:12.120Z,9.66
2024-03-12T23:43:39.566Z,9.67
2024-03-12T23:46:08.221Z,9.68
2024-03-12T23:48:36.579Z,9.62
2024-03-12T23:51:04.056Z,9.58
2024-03-12T23:53:31.301Z,9.61
2024-03-12T23:55:58.626Z,9.66
2024-03-12T23:58:26.131Z,9.67
